DW5400 Weather Reports


time (UTC)temp
C
wind
direction
speed
KPH
gust
KPH
rain 1hr
cm
rain 24hr
cm
rain mn
cm
humidity
%
barometer
mb
20190821132513 22 360 0.0 0.0 0.00 0.61 0.00 41 1023.9
20190821124512 21 360 0.0 0.0 0.00 0.61 0.00 44 1024.1
20190821123512 20 360 0.0 0.0 0.00 0.61 0.00 46 1024.4
20190821120512 20 360 0.0 0.0 0.00 0.61 0.00 49 1025.6
20190821115512 19 360 0.0 0.0 0.00 0.61 0.00 48 1025.7
20190821111511 19 360 0.0 0.0 0.00 0.61 0.00 53 1025.7
20190821110511 18 360 0.0 0.0 0.00 0.61 0.00 54 1025.8
20190821105511 18 360 0.0 0.0 0.00 0.61 0.00 56 1025.8
20190821104511 18 360 0.0 0.0 0.00 0.61 0.00 59 1025.9
20190821093510 17 360 0.0 0.0 0.00 0.61 0.00 68 1026.3
20190821092510 16 360 0.0 0.0 0.00 0.61 0.00 68 1026.4
20190821091514 16 360 0.0 0.0 0.00 0.61 0.00 69 1026.5
20190821085510 13 360 0.0 0.0 0.05 0.61 0.00 90 1024.1
20190821083510 15 360 0.0 0.0 0.00 0.61 0.00 76 1026.9
20190821081510 14 360 0.0 0.0 0.00 0.61 0.00 78 1027.0
20190821080509 14 360 0.0 0.0 0.00 0.61 0.00 79 1027.0
20190821074509 13 360 0.0 0.0 0.00 0.61 0.00 82 1027.2
20190821073509 13 360 0.0 0.0 0.00 0.61 0.00 84 1027.2
20190821071509 13 360 0.0 0.0 0.00 0.61 0.00 86 1027.3
20190821070509 12 360 0.0 0.0 0.00 0.61 0.00 88 1027.4
20190821063509 12 360 0.0 0.0 0.00 0.61 0.00 90 1027.6
20190821062513 11 360 0.0 0.0 0.00 0.61 0.00 90 1027.7
20190821061513 11 360 0.0 0.0 0.00 0.61 0.00 90 1027.8
20190821055513 11 360 0.0 0.0 0.00 0.61 0.00 90 1027.9
20190821053513 10 360 0.0 0.0 0.00 0.61 0.00 90 1028.1
20190821052514 10 360 0.0 0.0 0.00 0.61 0.00 90 1027.1
20190821051513 13 360 0.0 0.0 0.05 0.61 0.00 90 1024.1
20190821050513 10 360 0.0 0.0 0.00 0.61 0.00 89 1027.2
20190821045513 9 360 0.0 0.0 0.00 0.61 0.00 89 1027.2
20190821034512 10 360 0.0 0.0 0.00 0.61 0.00 88 1026.9
20190821033512 11 360 0.0 0.0 0.00 0.61 0.00 88 1026.9
20190821032512 11 360 0.0 0.0 0.00 0.61 0.00 88 1025.8
20190821025511 11 360 0.0 0.0 0.00 0.61 0.00 89 1025.7
20190821024511 11 360 0.0 0.0 0.00 0.61 0.00 89 1025.7
20190821023511 11 360 0.0 0.0 0.00 0.61 0.00 89 1025.7
20190821022511 11 360 0.0 0.0 0.00 0.61 0.00 89 1025.7
20190821015511 11 360 0.0 0.0 0.00 0.61 0.00 88 1025.5
20190821011511 12 360 0.0 0.0 0.00 0.61 0.00 88 1025.3
20190821010511 12 360 0.0 0.0 0.00 0.61 0.00 88 1025.3
20190821003510 12 360 0.0 0.0 0.00 0.61 0.00 88 1025.2
20190821002510 13 360 0.0 0.0 0.00 0.61 0.00 89 1025.2
20190821001510 13 360 0.0 0.0 0.00 0.61 0.00 89 1025.2
20190820234510 13 360 0.0 0.0 0.00 0.61 0.00 89 1025.1
20190820233510 13 360 0.0 0.0 0.00 0.61 0.00 90 1024.0
20190820231511 13 360 0.0 0.0 0.00 0.61 0.00 90 1024.0
20190820224509 13 360 0.0 0.0 0.00 0.61 0.00 90 1024.1
20190820222509 13 360 0.0 0.0 0.05 0.61 0.00 91 1024.1
20190820220509 13 360 0.0 0.0 0.05 0.61 0.00 90 1024.1
20190820215509 13 360 0.0 0.0 0.05 0.61 0.61 90 1024.1
20190820214514 13 360 0.0 0.0 0.05 0.61 0.61 90 1024.1
20190820213514 12 360 0.0 0.0 0.10 0.61 0.61 90 1024.2
20190820212513 13 360 0.0 0.0 0.05 0.56 0.56 90 1024.1
20190820211513 13 360 0.0 0.0 0.05 0.56 0.56 90 1024.1
20190820210513 13 360 0.0 0.0 0.05 0.56 0.56 90 1024.1
20190820204513 13 360 0.0 0.0 0.10 0.56 0.56 90 1024.1
20190820203513 12 360 0.0 0.0 0.05 0.51 0.51 90 1024.2
20190820201513 12 360 0.0 0.0 0.10 0.51 0.51 90 1024.2
20190820200513 12 360 0.0 0.0 0.15 0.51 0.51 90 1023.2
20190820195512 12 360 0.0 0.0 0.10 0.46 0.46 90 1024.2
20190820190512 12 360 0.0 0.0 0.15 0.36 0.36 89 1023.1
20190820185512 12 360 0.0 0.0 0.15 0.36 0.36 89 1023.1
20190820184512 12 360 0.0 0.0 0.15 0.30 0.30 89 1023.1
20190820183512 12 360 0.0 0.0 0.15 0.30 0.30 89 1023.1
20190820181512 12 360 0.0 0.0 0.05 0.20 0.20 88 1023.1
20190820180511 13 360 0.0 0.0 0.10 0.20 0.20 88 1023.0
20190820175511 13 360 0.0 0.0 0.10 0.20 0.20 88 1023.0
20190820172511 13 360 0.0 0.0 0.10 0.15 0.15 86 1021.9
20190820171511 13 360 0.0 0.0 0.15 0.15 0.15 85 1021.8
20190820165511 14 360 0.0 0.0 0.10 0.10 0.10 84 1021.7
20190820163511 14 360 0.0 0.0 0.05 0.05 0.05 83 1021.7
20190820161510 14 360 0.0 0.0 0.00 0.00 0.00 81 1021.7
20190820155510 14 360 0.0 0.0 0.00 0.00 0.00 79 1021.7
20190820153510 15 360 0.0 0.0 0.00 0.00 0.00 75 1020.4
20190820151510 16 360 0.0 0.0 0.00 0.00 0.00 70 1020.1
20190820150510 16 360 0.0 0.0 0.00 0.00 0.00 69 1020.1
20190820144510 17 360 0.0 0.0 0.00 0.00 0.00 65 1019.8
20190820135509 19 360 0.0 0.0 0.00 0.00 0.00 57 1019.3
20190820134509 19 360 0.0 0.0 0.00 0.00 0.00 55 1019.2
20190820133509 20 360 0.0 0.0 0.00 0.00 0.00 54 1019.2